Time;durP1;ratioP1;P1;durP2;ratioP2;P2;SDS_P1;SDS_P2;PMS_P1;PMS_P2;Temp;Humidity;BMP_temperature;BMP_pressure;BME280_temperature;BME280_humidity;BME280_pressure;Samples;Min_cycle;Max_cycle;Signal;HPM_P1;HPM_P2
2021/11/06 00:00:31;;;;;;;7.73;5.77;;;;;;;;;;5128977;28;20558;-57
2021/11/06 00:02:57;;;;;;;7.10;5.40;;;;;;;;;;5104978;28;20656;-57
2021/11/06 00:05:23;;;;;;;6.60;5.13;;;;;;;;;;5108191;28;20654;-56
2021/11/06 00:07:49;;;;;;;8.00;5.73;;;;;;;;;;5124520;28;20170;-56
2021/11/06 00:10:16;;;;;;;8.33;5.90;;;;;;;;;;5129717;27;20552;-57
2021/11/06 00:12:43;;;;;;;10.00;5.90;;;;;;;;;;5116519;27;20183;-57
2021/11/06 00:15:10;;;;;;;7.70;5.73;;;;;;;;;;5093731;28;20183;-56
2021/11/06 00:17:36;;;;;;;7.07;5.40;;;;;;;;;;5125714;27;20182;-57
2021/11/06 00:20:03;;;;;;;5.40;4.73;;;;;;;;;;5123615;27;20187;-57
2021/11/06 00:22:29;;;;;;;6.47;5.27;;;;;;;;;;5106039;27;20214;-57
2021/11/06 00:24:55;;;;;;;5.07;4.57;;;;;;;;;;5113373;27;20206;-57
2021/11/06 00:27:21;;;;;;;7.20;5.83;;;;;;;;;;5134027;27;20178;-57
2021/11/06 00:29:47;;;;;;;6.20;5.43;;;;;;;;;;5133304;27;20178;-57
2021/11/06 00:32:13;;;;;;;6.57;5.57;;;;;;;;;;5131658;27;20171;-56
2021/11/06 00:34:40;;;;;;;8.63;5.50;;;;;;;;;;5132829;27;20341;-57
2021/11/06 00:37:06;;;;;;;6.90;5.57;;;;;;;;;;5131932;27;20182;-57
2021/11/06 00:39:33;;;;;;;7.00;5.33;;;;;;;;;;5134903;27;20202;-57
2021/11/06 00:42:00;;;;;;;7.87;6.13;;;;;;;;;;5093108;28;20232;-56
2021/11/06 00:44:26;;;;;;;7.20;5.53;;;;;;;;;;5105577;27;20179;-57
2021/11/06 00:46:52;;;;;;;5.93;5.20;;;;;;;;;;5129285;27;20691;-57
2021/11/06 00:49:18;;;;;;;8.20;5.63;;;;;;;;;;5112234;27;20182;-56
2021/11/06 00:51:45;;;;;;;7.13;5.67;;;;;;;;;;5112440;27;20179;-57
2021/11/06 00:54:11;;;;;;;5.77;5.17;;;;;;;;;;5131841;27;20270;-57
2021/11/06 00:56:37;;;;;;;8.80;5.53;;;;;;;;;;5131258;27;20186;-56
2021/11/06 00:59:04;;;;;;;6.37;5.40;;;;;;;;;;5113192;27;20261;-57
2021/11/06 01:01:30;;;;;;;6.53;5.47;;;;;;;;;;5130656;27;20216;-56
2021/11/06 01:03:56;;;;;;;6.47;5.53;;;;;;;;;;5131199;27;20637;-57
2021/11/06 01:06:23;;;;;;;5.93;5.33;;;;;;;;;;5111791;27;20245;-57
2021/11/06 01:08:49;;;;;;;8.10;5.87;;;;;;;;;;5109616;27;20194;-56
2021/11/06 01:11:15;;;;;;;7.97;5.20;;;;;;;;;;5116072;27;20224;-56
2021/11/06 01:13:41;;;;;;;5.83;5.27;;;;;;;;;;5131015;27;20655;-57
2021/11/06 01:16:08;;;;;;;8.13;5.60;;;;;;;;;;5131081;27;20511;-56
2021/11/06 01:18:35;;;;;;;6.47;5.43;;;;;;;;;;5112341;27;20314;-57
2021/11/06 01:21:01;;;;;;;7.73;5.97;;;;;;;;;;5111725;27;20182;-56
2021/11/06 01:23:27;;;;;;;6.37;5.70;;;;;;;;;;5111467;27;20222;-56
2021/11/06 01:25:53;;;;;;;10.47;5.67;;;;;;;;;;5130559;27;20252;-56
2021/11/06 01:28:19;;;;;;;6.40;5.50;;;;;;;;;;5092188;28;20183;-56
2021/11/06 01:30:45;;;;;;;6.97;5.30;;;;;;;;;;5110592;28;20187;-56
2021/11/06 01:33:11;;;;;;;7.90;5.93;;;;;;;;;;5119352;27;20236;-57
2021/11/06 01:35:37;;;;;;;6.93;5.40;;;;;;;;;;5109773;28;20171;-55
2021/11/06 01:38:04;;;;;;;7.93;6.47;;;;;;;;;;5111879;27;20655;-56
2021/11/06 01:40:30;;;;;;;7.50;5.77;;;;;;;;;;5129743;27;20181;-56
2021/11/06 01:42:56;;;;;;;7.70;5.97;;;;;;;;;;5127065;27;20217;-59
2021/11/06 01:45:23;;;;;;;8.87;6.50;;;;;;;;;;5110109;28;20676;-56
2021/11/06 01:47:49;;;;;;;7.23;6.17;;;;;;;;;;5087038;28;20182;-56
2021/11/06 01:50:17;;;;;;;8.27;6.83;;;;;;;;;;5109927;28;20538;-56
2021/11/06 01:52:44;;;;;;;8.07;6.33;;;;;;;;;;5105542;27;20645;-56
2021/11/06 01:55:10;;;;;;;6.90;6.20;;;;;;;;;;5111978;27;20171;-55
2021/11/06 01:57:37;;;;;;;8.17;6.33;;;;;;;;;;5129661;27;20186;-56
2021/11/06 02:00:14;;;;;;;7.00;5.83;;;;;;;;;;5130796;27;20186;-56
2021/11/06 02:02:42;;;;;;;6.83;6.13;;;;;;;;;;5128922;27;20614;-56
2021/11/06 02:05:09;;;;;;;8.77;6.33;;;;;;;;;;5111632;27;20206;-56
2021/11/06 02:07:35;;;;;;;7.00;6.23;;;;;;;;;;5129602;27;20709;-56
2021/11/06 02:10:02;;;;;;;7.83;7.03;;;;;;;;;;5112131;27;20306;-56
2021/11/06 02:12:28;;;;;;;7.93;6.53;;;;;;;;;;5121171;27;20607;-57
2021/11/06 02:14:54;;;;;;;8.20;6.67;;;;;;;;;;5110020;28;20509;-56
2021/11/06 02:17:21;;;;;;;8.07;6.57;;;;;;;;;;5111084;27;20211;-56
2021/11/06 02:19:47;;;;;;;8.93;6.57;;;;;;;;;;5129570;27;20163;-56
2021/11/06 02:22:13;;;;;;;8.90;6.60;;;;;;;;;;5109465;27;20237;-56
2021/11/06 02:24:40;;;;;;;7.97;6.83;;;;;;;;;;5100576;27;20208;-56
2021/11/06 02:27:06;;;;;;;7.53;6.33;;;;;;;;;;5129357;27;20186;-57
2021/11/06 02:29:33;;;;;;;11.77;7.73;;;;;;;;;;5111220;27;20186;-57
2021/11/06 02:32:00;;;;;;;9.67;7.00;;;;;;;;;;5129768;27;20260;-57
2021/11/06 02:34:26;;;;;;;9.60;7.33;;;;;;;;;;5121600;27;20205;-56
2021/11/06 02:36:52;;;;;;;9.73;7.30;;;;;;;;;;5090488;28;20193;-56
2021/11/06 02:39:18;;;;;;;7.80;7.00;;;;;;;;;;5093979;28;20189;-57
2021/11/06 02:41:44;;;;;;;9.33;6.60;;;;;;;;;;5120772;27;20182;-56
2021/11/06 02:44:12;;;;;;;11.13;7.57;;;;;;;;;;5111088;27;20175;-56
2021/11/06 02:46:39;;;;;;;12.23;7.80;;;;;;;;;;5129222;27;20209;-57
2021/11/06 02:49:06;;;;;;;10.63;7.20;;;;;;;;;;5129255;27;20180;-56
2021/11/06 02:51:32;;;;;;;12.67;6.83;;;;;;;;;;5127402;27;20178;-57
2021/11/06 02:53:58;;;;;;;8.67;6.83;;;;;;;;;;5121870;27;20190;-57
2021/11/06 02:56:25;;;;;;;8.63;6.73;;;;;;;;;;5122722;27;20585;-56
2021/11/06 02:58:52;;;;;;;13.50;7.57;;;;;;;;;;5129306;27;20610;-56
2021/11/06 03:01:18;;;;;;;11.63;7.60;;;;;;;;;;5110008;27;20294;-57
2021/11/06 03:03:44;;;;;;;7.70;6.37;;;;;;;;;;5128635;28;20175;-56
2021/11/06 03:06:10;;;;;;;13.43;8.17;;;;;;;;;;5127744;28;20216;-56
2021/11/06 03:08:36;;;;;;;8.87;6.60;;;;;;;;;;5128840;28;20621;-56
2021/11/06 03:11:02;;;;;;;10.53;7.43;;;;;;;;;;5109471;28;20206;-57
2021/11/06 03:13:28;;;;;;;14.43;8.07;;;;;;;;;;5129005;28;20166;-57
2021/11/06 03:15:54;;;;;;;9.93;7.60;;;;;;;;;;5110206;28;20519;-56
2021/11/06 03:18:20;;;;;;;10.27;7.43;;;;;;;;;;5109583;28;20192;-56
2021/11/06 03:20:47;;;;;;;13.60;7.93;;;;;;;;;;5101780;28;20171;-56
2021/11/06 03:23:13;;;;;;;12.80;6.37;;;;;;;;;;5127253;28;20253;-56
2021/11/06 03:25:39;;;;;;;9.17;7.17;;;;;;;;;;5110092;28;20249;-57
2021/11/06 03:28:06;;;;;;;11.37;7.03;;;;;;;;;;5128487;28;20177;-55
2021/11/06 03:30:32;;;;;;;9.50;7.53;;;;;;;;;;5129017;28;20201;-56
2021/11/06 03:32:58;;;;;;;10.40;7.37;;;;;;;;;;5128197;28;20219;-56
2021/11/06 03:35:24;;;;;;;10.37;7.70;;;;;;;;;;5128124;28;20170;-57
2021/11/06 03:37:51;;;;;;;10.40;7.37;;;;;;;;;;5109447;28;20183;-56
2021/11/06 03:40:18;;;;;;;10.67;7.60;;;;;;;;;;5107193;28;20186;-56
2021/11/06 03:42:45;;;;;;;11.80;7.70;;;;;;;;;;5123600;28;20190;-56
2021/11/06 03:45:11;;;;;;;8.90;6.60;;;;;;;;;;5109709;28;20197;-56
2021/11/06 03:47:38;;;;;;;9.60;7.47;;;;;;;;;;5126284;27;20235;-56
2021/11/06 03:50:06;;;;;;;10.00;6.60;;;;;;;;;;5131448;27;20186;-57
2021/11/06 03:52:32;;;;;;;11.27;7.77;;;;;;;;;;5126262;27;20647;-56
2021/11/06 03:54:59;;;;;;;13.60;7.57;;;;;;;;;;5132310;27;20599;-56
2021/11/06 03:57:25;;;;;;;8.90;7.23;;;;;;;;;;5113929;27;20198;-56
2021/11/06 03:59:51;;;;;;;9.40;6.77;;;;;;;;;;5111030;27;20182;-56
2021/11/06 04:02:18;;;;;;;9.43;7.10;;;;;;;;;;5113845;27;20186;-55
2021/11/06 04:04:44;;;;;;;10.23;7.67;;;;;;;;;;5126845;27;20633;-56
2021/11/06 04:07:10;;;;;;;10.30;7.77;;;;;;;;;;5122886;27;20202;-56
2021/11/06 04:09:36;;;;;;;10.90;7.43;;;;;;;;;;5132417;27;20171;-56
2021/11/06 04:12:03;;;;;;;9.87;7.33;;;;;;;;;;5132428;27;20182;-56
2021/11/06 04:14:29;;;;;;;9.23;7.47;;;;;;;;;;5114019;27;20256;-56
2021/11/06 04:16:56;;;;;;;12.40;8.63;;;;;;;;;;5132306;27;20193;-56
2021/11/06 04:19:22;;;;;;;11.63;7.17;;;;;;;;;;5113003;27;20182;-57
2021/11/06 04:21:49;;;;;;;10.20;7.47;;;;;;;;;;5106594;28;20217;-57
2021/11/06 04:24:15;;;;;;;12.23;7.33;;;;;;;;;;5110320;28;20707;-57
2021/11/06 04:26:41;;;;;;;9.30;7.73;;;;;;;;;;5097028;28;20198;-55
2021/11/06 04:29:08;;;;;;;10.67;6.50;;;;;;;;;;5111632;27;20514;-56
2021/11/06 04:31:34;;;;;;;14.97;8.93;;;;;;;;;;5113400;27;20178;-55
2021/11/06 04:34:01;;;;;;;9.67;7.10;;;;;;;;;;5132006;27;20229;-56
2021/11/06 04:36:27;;;;;;;12.90;8.10;;;;;;;;;;5130934;27;20173;-56
2021/11/06 04:38:54;;;;;;;11.57;7.70;;;;;;;;;;5104299;28;20781;-56
2021/11/06 04:41:20;;;;;;;12.83;7.73;;;;;;;;;;5115224;27;20201;-56
2021/11/06 04:43:46;;;;;;;9.30;7.23;;;;;;;;;;5092439;28;20187;-56
2021/11/06 04:46:13;;;;;;;11.73;7.63;;;;;;;;;;5095654;27;20768;-56
2021/11/06 04:48:39;;;;;;;8.80;7.63;;;;;;;;;;5131444;27;20170;-56
2021/11/06 04:51:05;;;;;;;9.60;7.50;;;;;;;;;;5130767;27;20231;-57
2021/11/06 04:53:31;;;;;;;9.33;7.47;;;;;;;;;;5113194;27;20600;-57
2021/11/06 04:55:57;;;;;;;9.53;6.93;;;;;;;;;;5131418;27;20197;-57
2021/11/06 04:58:23;;;;;;;10.50;7.33;;;;;;;;;;5112062;27;20185;-56
2021/11/06 05:00:50;;;;;;;10.33;7.97;;;;;;;;;;5129844;27;20210;-56
2021/11/06 05:03:16;;;;;;;9.83;8.03;;;;;;;;;;5131106;27;20312;-56
2021/11/06 05:05:42;;;;;;;10.53;7.53;;;;;;;;;;5112537;27;20202;-56
2021/11/06 05:08:10;;;;;;;10.73;8.20;;;;;;;;;;5123697;27;20167;-56
2021/11/06 05:10:36;;;;;;;11.30;7.00;;;;;;;;;;5092590;28;20182;-56
2021/11/06 05:13:03;;;;;;;9.73;7.53;;;;;;;;;;5111229;27;20672;-56
2021/11/06 05:15:30;;;;;;;8.80;7.13;;;;;;;;;;5106858;28;20179;-56
2021/11/06 05:17:56;;;;;;;9.23;6.80;;;;;;;;;;5124105;27;20182;-56
2021/11/06 05:20:22;;;;;;;8.43;7.33;;;;;;;;;;5110601;28;20652;-56
2021/11/06 05:22:48;;;;;;;9.90;7.17;;;;;;;;;;5124739;27;20700;-56
2021/11/06 05:25:17;;;;;;;9.57;7.57;;;;;;;;;;5130835;27;20677;-56
2021/11/06 05:27:44;;;;;;;10.30;8.10;;;;;;;;;;5130992;27;20570;-56
2021/11/06 05:30:11;;;;;;;11.43;7.80;;;;;;;;;;5131427;27;20589;-56
2021/11/06 05:32:38;;;;;;;10.83;6.93;;;;;;;;;;5112001;27;20179;-56
2021/11/06 05:35:05;;;;;;;7.83;6.80;;;;;;;;;;5130493;27;20228;-56
2021/11/06 05:37:31;;;;;;;9.37;7.20;;;;;;;;;;5111189;27;20192;-56
2021/11/06 05:39:58;;;;;;;7.70;6.87;;;;;;;;;;5131128;27;20651;-56
2021/11/06 05:42:24;;;;;;;13.40;7.43;;;;;;;;;;5112330;27;20183;-56
2021/11/06 05:44:50;;;;;;;8.93;7.10;;;;;;;;;;5113984;27;20179;-56
2021/11/06 05:47:17;;;;;;;11.47;7.47;;;;;;;;;;5112011;27;20190;-57
2021/11/06 05:49:43;;;;;;;9.27;7.40;;;;;;;;;;5111602;27;20663;-56
2021/11/06 05:52:10;;;;;;;9.37;7.17;;;;;;;;;;5111569;27;20186;-57
2021/11/06 05:54:36;;;;;;;9.80;6.67;;;;;;;;;;5130272;27;20631;-57
2021/11/06 05:57:02;;;;;;;8.03;6.70;;;;;;;;;;5130378;27;20239;-56
2021/11/06 05:59:28;;;;;;;11.87;7.33;;;;;;;;;;5130468;27;20698;-56
2021/11/06 06:01:54;;;;;;;9.77;6.67;;;;;;;;;;5130356;27;20205;-56
2021/11/06 06:04:20;;;;;;;9.43;7.00;;;;;;;;;;5129497;27;20189;-56
2021/11/06 06:06:46;;;;;;;8.50;6.93;;;;;;;;;;5124329;27;20206;-56
2021/11/06 06:09:13;;;;;;;10.30;6.33;;;;;;;;;;5122630;27;20194;-57
2021/11/06 06:11:39;;;;;;;10.60;7.23;;;;;;;;;;5130031;27;20239;-56
2021/11/06 06:14:05;;;;;;;9.47;7.30;;;;;;;;;;5130279;27;20169;-56
2021/11/06 06:16:31;;;;;;;9.27;6.80;;;;;;;;;;5130149;27;20688;-56
2021/11/06 06:18:57;;;;;;;8.07;6.30;;;;;;;;;;5129596;27;20209;-56
2021/11/06 06:21:23;;;;;;;10.47;7.50;;;;;;;;;;5128724;27;20182;-56
2021/11/06 06:23:49;;;;;;;10.87;6.77;;;;;;;;;;5111669;27;20155;-57
2021/11/06 06:26:15;;;;;;;9.67;7.50;;;;;;;;;;5123578;27;20222;-56
2021/11/06 06:28:42;;;;;;;10.77;6.73;;;;;;;;;;5128063;27;20208;-57
2021/11/06 06:31:08;;;;;;;11.40;7.60;;;;;;;;;;5111282;27;20182;-57
2021/11/06 06:33:34;;;;;;;8.20;7.10;;;;;;;;;;5129233;27;20170;-57
2021/11/06 06:36:00;;;;;;;10.37;6.67;;;;;;;;;;5128017;27;20231;-57
2021/11/06 06:38:26;;;;;;;10.57;7.97;;;;;;;;;;5129723;27;20184;-57
2021/11/06 06:40:52;;;;;;;10.77;7.70;;;;;;;;;;5128513;27;20668;-56
2021/11/06 06:43:18;;;;;;;11.83;8.07;;;;;;;;;;5126205;27;20260;-57
2021/11/06 06:45:45;;;;;;;10.70;7.40;;;;;;;;;;5109154;28;20206;-56
2021/11/06 06:48:11;;;;;;;11.87;8.33;;;;;;;;;;5109614;27;20182;-56
2021/11/06 06:50:37;;;;;;;12.47;7.50;;;;;;;;;;5111989;27;20580;-57
2021/11/06 06:53:03;;;;;;;9.33;6.73;;;;;;;;;;5127161;27;20191;-56
2021/11/06 06:55:29;;;;;;;9.70;7.60;;;;;;;;;;5129968;27;20582;-57
2021/11/06 06:57:55;;;;;;;11.80;7.40;;;;;;;;;;5090250;28;20194;-57
2021/11/06 07:00:21;;;;;;;10.90;7.83;;;;;;;;;;5109047;28;20182;-56
2021/11/06 07:02:47;;;;;;;9.83;7.23;;;;;;;;;;5124301;27;20187;-56
2021/11/06 07:05:13;;;;;;;10.93;7.50;;;;;;;;;;5128168;28;20479;-57
2021/11/06 07:07:39;;;;;;;11.63;8.00;;;;;;;;;;5101043;28;20584;-57
2021/11/06 07:10:06;;;;;;;12.07;8.33;;;;;;;;;;5110802;28;20232;-57
2021/11/06 07:12:33;;;;;;;14.93;8.10;;;;;;;;;;5105901;28;20190;-56
2021/11/06 07:14:59;;;;;;;10.27;7.40;;;;;;;;;;5129282;28;20173;-56
2021/11/06 07:17:25;;;;;;;13.50;7.60;;;;;;;;;;5128807;28;20174;-56
2021/11/06 07:19:51;;;;;;;11.10;8.50;;;;;;;;;;5128194;27;20182;-56
2021/11/06 07:22:18;;;;;;;12.67;8.17;;;;;;;;;;5132779;27;20210;-56
2021/11/06 07:24:44;;;;;;;9.83;8.00;;;;;;;;;;5115148;27;20178;-56
2021/11/06 07:27:10;;;;;;;10.60;7.80;;;;;;;;;;5132988;27;20277;-57
2021/11/06 07:29:37;;;;;;;15.63;7.67;;;;;;;;;;5133736;27;20174;-56
2021/11/06 07:32:04;;;;;;;11.83;8.73;;;;;;;;;;5133233;27;20268;-56
2021/11/06 07:34:30;;;;;;;11.30;8.30;;;;;;;;;;5123532;27;20187;-57
2021/11/06 07:36:57;;;;;;;12.53;8.10;;;;;;;;;;5125844;27;20716;-56
2021/11/06 07:39:26;;;;;;;10.77;8.10;;;;;;;;;;5114458;27;20185;-56
2021/11/06 07:41:53;;;;;;;15.00;8.33;;;;;;;;;;5132764;27;20305;-56
2021/11/06 07:44:19;;;;;;;10.57;8.23;;;;;;;;;;5102576;28;20657;-56
2021/11/06 07:46:45;;;;;;;14.87;8.50;;;;;;;;;;5119507;27;20220;-55
2021/11/06 07:49:11;;;;;;;12.53;7.87;;;;;;;;;;5132610;27;20162;-56
2021/11/06 07:51:37;;;;;;;13.37;8.63;;;;;;;;;;5132143;27;20183;-56
2021/11/06 07:54:04;;;;;;;9.83;7.47;;;;;;;;;;5114675;27;20227;-56
2021/11/06 07:56:30;;;;;;;12.17;7.80;;;;;;;;;;5132367;27;20183;-56
2021/11/06 07:58:57;;;;;;;11.70;8.97;;;;;;;;;;5112711;27;20206;-56
2021/11/06 08:01:23;;;;;;;10.70;8.03;;;;;;;;;;5129480;27;20668;-57
2021/11/06 08:03:49;;;;;;;11.60;8.30;;;;;;;;;;5113750;27;20320;-56
2021/11/06 08:06:18;;;;;;;10.63;7.90;;;;;;;;;;5097362;27;20190;-56
2021/11/06 08:08:44;;;;;;;11.50;8.40;;;;;;;;;;5132544;27;20189;-57
2021/11/06 08:11:10;;;;;;;12.23;8.17;;;;;;;;;;5113244;27;20183;-56
2021/11/06 08:13:36;;;;;;;12.00;8.30;;;;;;;;;;5132940;27;20644;-56
2021/11/06 08:16:02;;;;;;;12.33;8.40;;;;;;;;;;5132215;27;20174;-56
2021/11/06 08:18:29;;;;;;;14.00;8.77;;;;;;;;;;5113638;27;20178;-56
2021/11/06 08:20:56;;;;;;;11.83;9.07;;;;;;;;;;5111885;27;20178;-56
2021/11/06 08:23:22;;;;;;;10.73;7.90;;;;;;;;;;5114945;27;20702;-56
2021/11/06 08:25:49;;;;;;;10.60;8.10;;;;;;;;;;5111841;28;20213;-57
2021/11/06 08:28:16;;;;;;;12.70;9.20;;;;;;;;;;5131425;27;20227;-56
2021/11/06 08:30:42;;;;;;;13.90;9.03;;;;;;;;;;5095711;28;20236;-56
2021/11/06 08:33:10;;;;;;;12.70;8.33;;;;;;;;;;5130438;27;20182;-57
2021/11/06 08:35:37;;;;;;;11.97;8.13;;;;;;;;;;5108300;28;20179;-56
2021/11/06 08:38:04;;;;;;;13.07;8.73;;;;;;;;;;5110730;27;20652;-56
2021/11/06 08:40:30;;;;;;;13.27;8.83;;;;;;;;;;5132400;27;20537;-56
2021/11/06 08:42:56;;;;;;;12.90;8.10;;;;;;;;;;5122594;27;20186;-56
2021/11/06 08:45:22;;;;;;;12.83;8.83;;;;;;;;;;5116323;27;20290;-56
2021/11/06 08:47:49;;;;;;;10.67;7.83;;;;;;;;;;5126894;27;20186;-56
2021/11/06 08:50:20;;;;;;;10.93;8.57;;;;;;;;;;5113098;27;20198;-56
2021/11/06 08:52:48;;;;;;;13.73;8.60;;;;;;;;;;5131076;27;20600;-56
2021/11/06 08:55:15;;;;;;;11.27;8.10;;;;;;;;;;5131762;27;20167;-56
2021/11/06 08:57:41;;;;;;;16.40;8.27;;;;;;;;;;5112375;27;20193;-56
2021/11/06 09:00:10;;;;;;;8.47;7.57;;;;;;;;;;5131791;27;20317;-56
2021/11/06 09:02:36;;;;;;;12.57;9.17;;;;;;;;;;5131022;27;20178;-56
2021/11/06 09:05:03;;;;;;;10.83;7.33;;;;;;;;;;5130489;27;20170;-56
2021/11/06 09:07:32;;;;;;;9.73;7.90;;;;;;;;;;5127922;27;20649;-56
2021/11/06 09:09:59;;;;;;;10.93;7.00;;;;;;;;;;5129627;27;20345;-57
2021/11/06 09:12:25;;;;;;;9.70;7.50;;;;;;;;;;5130459;27;20581;-55
2021/11/06 09:14:52;;;;;;;9.20;8.00;;;;;;;;;;5131305;27;20170;-57
2021/11/06 09:17:19;;;;;;;11.57;7.70;;;;;;;;;;5112501;27;20668;-56
2021/11/06 09:19:45;;;;;;;8.77;7.13;;;;;;;;;;5130472;27;20174;-56
2021/11/06 09:22:11;;;;;;;8.87;7.17;;;;;;;;;;5111912;27;20724;-56
2021/11/06 09:24:40;;;;;;;10.47;7.60;;;;;;;;;;5112683;27;20170;-56
2021/11/06 09:27:06;;;;;;;9.77;7.40;;;;;;;;;;5091431;28;20234;-56
2021/11/06 09:29:32;;;;;;;9.30;7.23;;;;;;;;;;5110169;27;20211;-56
2021/11/06 09:31:59;;;;;;;10.83;7.03;;;;;;;;;;5111659;27;20248;-56
2021/11/06 09:34:25;;;;;;;9.00;6.73;;;;;;;;;;5108649;27;20174;-57
2021/11/06 09:36:51;;;;;;;9.73;6.47;;;;;;;;;;5128955;27;20701;-56
2021/11/06 09:39:17;;;;;;;9.37;6.87;;;;;;;;;;5130834;27;20166;-56
2021/11/06 09:41:44;;;;;;;7.90;6.07;;;;;;;;;;5111985;27;20581;-56
2021/11/06 09:44:10;;;;;;;10.27;6.53;;;;;;;;;;5101315;28;20179;-56
2021/11/06 09:46:36;;;;;;;9.33;6.47;;;;;;;;;;5097842;27;20198;-56
2021/11/06 09:49:03;;;;;;;9.17;6.57;;;;;;;;;;5130329;27;20640;-56
2021/11/06 09:51:29;;;;;;;6.30;5.50;;;;;;;;;;5129786;27;20647;-56
2021/11/06 09:53:56;;;;;;;7.53;5.70;;;;;;;;;;5130996;27;20200;-57
2021/11/06 09:56:26;;;;;;;7.17;5.73;;;;;;;;;;5130714;27;20205;-56
2021/11/06 09:59:00;;;;;;;7.27;5.37;;;;;;;;;;5120662;27;20331;-56
2021/11/06 10:01:28;;;;;;;7.43;5.87;;;;;;;;;;5111630;27;20178;-56
2021/11/06 10:03:54;;;;;;;6.30;5.70;;;;;;;;;;5128810;27;20182;-56
2021/11/06 10:06:24;;;;;;;7.60;5.40;;;;;;;;;;5129268;27;20668;-56
2021/11/06 10:08:52;;;;;;;7.83;5.63;;;;;;;;;;5112664;27;20179;-57
2021/11/06 10:11:20;;;;;;;7.63;5.57;;;;;;;;;;5112959;27;20174;-56
2021/11/06 10:13:54;;;;;;;7.17;5.60;;;;;;;;;;5111797;27;20219;-57
2021/11/06 10:16:21;;;;;;;5.67;5.07;;;;;;;;;;5130039;27;20192;-55
2021/11/06 10:18:47;;;;;;;7.67;5.23;;;;;;;;;;5110950;27;20182;-55
2021/11/06 10:21:13;;;;;;;7.27;4.87;;;;;;;;;;5117860;27;20221;-55
2021/11/06 10:23:42;;;;;;;6.00;4.53;;;;;;;;;;5131570;27;20730;-55
2021/11/06 10:26:14;;;;;;;6.77;4.97;;;;;;;;;;5148254;27;20210;-56
2021/11/06 10:28:40;;;;;;;4.97;4.47;;;;;;;;;;5111327;27;20174;-56
2021/11/06 10:31:06;;;;;;;5.40;4.90;;;;;;;;;;5112804;27;20185;-56
2021/11/06 10:33:42;;;;;;;5.10;4.70;;;;;;;;;;5150090;27;20541;-55
2021/11/06 10:36:15;;;;;;;5.37;4.87;;;;;;;;;;5147232;27;20198;-55
2021/11/06 10:38:42;;;;;;;5.40;3.80;;;;;;;;;;5111472;27;20166;-58
2021/11/06 10:41:08;;;;;;;5.53;4.33;;;;;;;;;;5116446;27;20586;-56
2021/11/06 10:43:37;;;;;;;5.43;4.50;;;;;;;;;;5124426;27;20645;-56
2021/11/06 10:46:10;;;;;;;5.30;4.23;;;;;;;;;;5092101;27;20191;-56
2021/11/06 10:48:37;;;;;;;4.73;4.17;;;;;;;;;;5111667;27;20628;-56
2021/11/06 10:51:05;;;;;;;4.87;4.37;;;;;;;;;;5119522;27;20652;-56
2021/11/06 10:53:31;;;;;;;9.17;5.23;;;;;;;;;;5129291;27;20174;-57
2021/11/06 10:55:58;;;;;;;5.17;4.33;;;;;;;;;;5109838;27;20181;-56
2021/11/06 10:58:25;;;;;;;8.00;5.37;;;;;;;;;;5129315;27;20702;-56
2021/11/06 11:00:53;;;;;;;7.40;5.13;;;;;;;;;;5129287;27;20671;-56
2021/11/06 11:03:29;;;;;;;4.93;4.37;;;;;;;;;;5108759;28;20315;-56
2021/11/06 11:05:57;;;;;;;5.47;4.43;;;;;;;;;;5108280;27;20194;-56
2021/11/06 11:08:26;;;;;;;6.00;4.50;;;;;;;;;;5110951;28;20658;-56
2021/11/06 11:10:52;;;;;;;5.67;4.30;;;;;;;;;;5129123;28;20567;-56
2021/11/06 11:13:19;;;;;;;6.30;4.70;;;;;;;;;;5131647;27;20644;-56
2021/11/06 11:15:47;;;;;;;5.60;4.20;;;;;;;;;;5150197;27;20624;-56
2021/11/06 11:18:32;;;;;;;5.27;4.73;;;;;;;;;;5109075;28;20182;-57
2021/11/06 11:21:09;;;;;;;4.93;3.77;;;;;;;;;;5128366;27;20249;-56
2021/11/06 11:23:35;;;;;;;4.63;4.23;;;;;;;;;;5128802;28;20316;-57
2021/11/06 11:26:01;;;;;;;4.90;3.87;;;;;;;;;;5110261;28;20209;-57
2021/11/06 11:28:28;;;;;;;6.20;4.40;;;;;;;;;;5130785;28;20224;-57
2021/11/06 11:30:54;;;;;;;5.20;4.23;;;;;;;;;;5109420;27;20194;-57
2021/11/06 11:33:21;;;;;;;4.93;4.23;;;;;;;;;;5110601;28;20698;-56
2021/11/06 11:35:47;;;;;;;5.17;4.30;;;;;;;;;;5110729;28;20266;-57
2021/11/06 11:38:14;;;;;;;5.30;4.07;;;;;;;;;;5128854;28;20183;-57
2021/11/06 11:40:43;;;;;;;5.07;4.57;;;;;;;;;;5129464;28;20645;-57
2021/11/06 11:43:32;;;;;;;4.70;4.03;;;;;;;;;;5126897;28;20493;-57
2021/11/06 11:46:02;;;;;;;4.70;3.80;;;;;;;;;;5092782;28;20206;-57
2021/11/06 11:48:28;;;;;;;6.47;3.50;;;;;;;;;;5099650;28;20175;-57
2021/11/06 11:50:58;;;;;;;5.23;3.77;;;;;;;;;;5127687;28;20202;-58
2021/11/06 11:53:26;;;;;;;4.97;4.13;;;;;;;;;;5093573;28;20261;-56
2021/11/06 11:55:55;;;;;;;6.47;3.90;;;;;;;;;;5127943;28;20194;-58
2021/11/06 11:58:26;;;;;;;5.87;4.10;;;;;;;;;;5107237;28;20179;-57
2021/11/06 12:00:55;;;;;;;5.17;4.20;;;;;;;;;;5108505;28;20236;-58
2021/11/06 12:03:32;;;;;;;5.10;4.23;;;;;;;;;;5128849;28;20181;-56
2021/11/06 12:05:58;;;;;;;4.20;3.80;;;;;;;;;;5109362;27;20198;-57
2021/11/06 12:08:32;;;;;;;5.77;4.30;;;;;;;;;;5132442;27;20175;-57
2021/11/06 12:11:00;;;;;;;4.10;3.57;;;;;;;;;;5131691;27;20154;-58
2021/11/06 12:13:32;;;;;;;4.53;4.13;;;;;;;;;;5097970;27;20637;-57
2021/11/06 12:16:06;;;;;;;4.30;3.63;;;;;;;;;;5113596;27;20181;-57
2021/11/06 12:18:35;;;;;;;4.17;3.80;;;;;;;;;;5112776;27;20285;-58
2021/11/06 12:21:14;;;;;;;5.30;3.57;;;;;;;;;;5112442;27;20170;-57
2021/11/06 12:23:41;;;;;;;4.00;3.60;;;;;;;;;;5132060;27;20217;-57
2021/11/06 12:26:18;;;;;;;4.50;4.07;;;;;;;;;;5131198;27;20299;-55
2021/11/06 12:28:45;;;;;;;3.80;3.40;;;;;;;;;;5097656;28;20497;-56
2021/11/06 12:31:24;;;;;;;6.57;2.97;;;;;;;;;;5114265;27;20178;-56
2021/11/06 12:33:50;;;;;;;4.13;3.57;;;;;;;;;;5113542;27;20530;-55
2021/11/06 12:36:17;;;;;;;4.80;2.70;;;;;;;;;;5097673;27;20178;-55
2021/11/06 12:38:43;;;;;;;4.27;3.30;;;;;;;;;;5132546;27;20930;-56
2021/11/06 12:41:11;;;;;;;4.30;3.63;;;;;;;;;;5129921;27;20227;-56
2021/11/06 12:43:49;;;;;;;4.40;2.90;;;;;;;;;;5106868;28;20179;-56
2021/11/06 12:46:23;;;;;;;4.67;3.33;;;;;;;;;;5095953;27;20206;-56
2021/11/06 12:48:50;;;;;;;3.33;2.87;;;;;;;;;;5131568;27;20464;-57
2021/11/06 12:51:18;;;;;;;3.43;3.13;;;;;;;;;;5112210;27;20182;-56
2021/11/06 12:53:55;;;;;;;2.90;2.60;;;;;;;;;;5131909;27;20196;-56
2021/11/06 12:56:22;;;;;;;3.30;3.00;;;;;;;;;;5128419;27;20170;-56
2021/11/06 12:59:09;;;;;;;3.47;2.83;;;;;;;;;;5111379;28;20179;-57
2021/11/06 13:01:56;;;;;;;3.10;2.80;;;;;;;;;;5117073;27;20522;-58
2021/11/06 13:04:22;;;;;;;3.97;3.57;;;;;;;;;;5130567;27;20670;-56
2021/11/06 13:06:52;;;;;;;3.03;2.73;;;;;;;;;;5130691;27;20194;-58
2021/11/06 13:09:22;;;;;;;4.00;2.70;;;;;;;;;;5124030;27;20187;-58
2021/11/06 13:11:55;;;;;;;2.67;2.47;;;;;;;;;;5118622;27;20668;-58
2021/11/06 13:14:42;;;;;;;3.70;2.80;;;;;;;;;;5097145;28;20633;-57
2021/11/06 13:17:19;;;;;;;2.43;2.10;;;;;;;;;;5121465;27;20170;-56
2021/11/06 13:19:50;;;;;;;3.10;2.57;;;;;;;;;;5111033;27;20182;-56
2021/11/06 13:22:25;;;;;;;3.57;3.30;;;;;;;;;;5130285;27;20245;-56
2021/11/06 13:24:52;;;;;;;3.70;2.53;;;;;;;;;;5131025;27;20174;-56
2021/11/06 13:27:36;;;;;;;2.47;2.27;;;;;;;;;;5130647;27;20198;-57
2021/11/06 13:30:12;;;;;;;3.40;2.57;;;;;;;;;;5116562;27;20198;-55
2021/11/06 13:32:51;;;;;;;2.73;2.53;;;;;;;;;;5124939;27;20253;-56
2021/11/06 13:35:17;;;;;;;2.77;2.53;;;;;;;;;;5130568;27;20531;-56
2021/11/06 13:37:43;;;;;;;2.60;2.10;;;;;;;;;;5130264;27;20186;-55
2021/11/06 13:40:10;;;;;;;2.60;2.20;;;;;;;;;;5131161;27;20535;-57
2021/11/06 13:42:39;;;;;;;3.30;2.47;;;;;;;;;;5129661;27;20534;-56
2021/11/06 13:45:12;;;;;;;4.00;2.33;;;;;;;;;;5094032;28;20652;-55
2021/11/06 13:47:45;;;;;;;2.30;2.10;;;;;;;;;;5105807;27;20212;-56
2021/11/06 13:50:12;;;;;;;2.30;2.10;;;;;;;;;;5111564;27;20183;-56
2021/11/06 13:52:40;;;;;;;3.43;2.37;;;;;;;;;;5124351;27;20589;-56
2021/11/06 13:55:12;;;;;;;2.20;2.00;;;;;;;;;;5130648;27;20673;-56
2021/11/06 13:57:38;;;;;;;1.90;1.80;;;;;;;;;;5099407;28;20175;-55
2021/11/06 14:00:07;;;;;;;2.83;2.40;;;;;;;;;;5091800;28;20227;-58
2021/11/06 14:02:33;;;;;;;3.90;2.40;;;;;;;;;;5123590;27;20183;-57
2021/11/06 14:05:07;;;;;;;2.20;2.00;;;;;;;;;;5130637;27;20755;-59
2021/11/06 14:07:45;;;;;;;2.57;2.10;;;;;;;;;;5111070;27;20210;-56
2021/11/06 14:10:16;;;;;;;2.23;2.00;;;;;;;;;;5109834;28;20633;-56
2021/11/06 14:12:46;;;;;;;2.97;2.07;;;;;;;;;;5098404;28;20183;-55
2021/11/06 14:15:12;;;;;;;2.43;2.23;;;;;;;;;;5109972;28;20167;-57
2021/11/06 14:17:48;;;;;;;2.93;2.40;;;;;;;;;;5105371;27;20186;-57
2021/11/06 14:20:16;;;;;;;5.00;2.30;;;;;;;;;;5109415;28;20178;-57
2021/11/06 14:22:45;;;;;;;3.47;2.00;;;;;;;;;;5124210;27;20233;-56
2021/11/06 14:25:24;;;;;;;2.27;2.00;;;;;;;;;;5130151;27;20193;-56
2021/11/06 14:28:07;;;;;;;2.53;2.00;;;;;;;;;;5110776;27;20628;-57
2021/11/06 14:30:45;;;;;;;3.23;2.37;;;;;;;;;;5129983;27;20170;-58
2021/11/06 14:33:11;;;;;;;2.70;2.20;;;;;;;;;;5129182;27;20193;-55
2021/11/06 14:35:38;;;;;;;5.03;2.43;;;;;;;;;;5129690;27;20499;-56
2021/11/06 14:38:07;;;;;;;3.07;2.40;;;;;;;;;;5115082;27;20212;-58
2021/11/06 14:40:34;;;;;;;4.17;2.27;;;;;;;;;;5127122;27;20223;-55